createdAt,value
2022-12-23T00:00:27.445Z,996.41
2022-12-23T00:00:49.911Z,996.31
2022-12-23T00:01:12.853Z,996.31
2022-12-23T00:01:48.195Z,996.31
2022-12-23T00:02:20.515Z,996.51
2022-12-23T00:02:51.739Z,996.51
2022-12-23T00:03:23.559Z,996.51
2022-12-23T00:03:55.664Z,996.51
2022-12-23T00:04:28.368Z,996.31
2022-12-23T00:04:50.716Z,996.31
2022-12-23T00:05:13.455Z,996.31
2022-12-23T00:05:47.392Z,996.31
2022-12-23T00:06:19.236Z,996.41
2022-12-23T00:06:51.519Z,996.41
2022-12-23T00:07:24.331Z,996.41
2022-12-23T00:07:56.350Z,996.41
2022-12-23T00:08:27.485Z,996.51
2022-12-23T00:08:50.420Z,996.31
2022-12-23T00:09:12.518Z,996.31
2022-12-23T00:09:48.998Z,996.41
2022-12-23T00:10:19.978Z,996.41
2022-12-23T00:10:51.793Z,996.41
2022-12-23T00:11:22.995Z,996.31
2022-12-23T00:11:55.430Z,996.31
2022-12-23T00:12:27.422Z,996.41
2022-12-23T00:12:50.090Z,996.51
2022-12-23T00:13:12.799Z,996.51
2022-12-23T00:13:47.526Z,996.51
2022-12-23T00:14:21.902Z,996.51
2022-12-23T00:14:51.908Z,996.51
2022-12-23T00:15:23.339Z,996.41
2022-12-23T00:15:55.788Z,996.41
2022-12-23T00:16:27.354Z,996.31
2022-12-23T00:16:50.319Z,996.51
2022-12-23T00:17:22.153Z,996.51
2022-12-23T00:17:47.628Z,996.51
2022-12-23T00:18:20.553Z,996.31
2022-12-23T00:18:51.548Z,996.31
2022-12-23T00:19:23.013Z,996.51
2022-12-23T00:19:55.701Z,996.51
2022-12-23T00:20:27.979Z,996.51
2022-12-23T00:20:51.049Z,996.31
2022-12-23T00:21:13.596Z,996.31
2022-12-23T00:21:48.007Z,996.31
2022-12-23T00:22:19.414Z,996.31
2022-12-23T00:22:52.185Z,996.31
2022-12-23T00:23:25.268Z,996.51
2022-12-23T00:23:55.571Z,996.51
2022-12-23T00:24:28.345Z,996.51
2022-12-23T00:24:50.812Z,996.24
2022-12-23T00:25:13.414Z,996.24
2022-12-23T00:25:48.699Z,996.24
2022-12-23T00:26:19.618Z,996.41
2022-12-23T00:26:51.488Z,996.41
2022-12-23T00:27:23.079Z,996.24
2022-12-23T00:27:55.625Z,996.24
2022-12-23T00:28:27.784Z,996.31
2022-12-23T00:28:50.603Z,996.24
2022-12-23T00:29:12.977Z,996.24
2022-12-23T00:29:48.983Z,996.31
2022-12-23T00:30:21.414Z,996.31
2022-12-23T00:30:51.447Z,996.31
2022-12-23T00:31:23.266Z,996.41
2022-12-23T00:31:55.463Z,996.41
2022-12-23T00:32:28.776Z,996.31
2022-12-23T00:32:50.080Z,996.31
2022-12-23T00:33:13.143Z,996.31
2022-12-23T00:33:47.837Z,996.31
2022-12-23T00:34:19.737Z,996.41
2022-12-23T00:34:51.250Z,996.41
2022-12-23T00:35:22.875Z,996.51
2022-12-23T00:35:56.364Z,996.51
2022-12-23T00:36:28.141Z,996.31
2022-12-23T00:36:50.593Z,996.31
2022-12-23T00:37:13.057Z,996.31
2022-12-23T00:37:47.558Z,996.31
2022-12-23T00:38:19.340Z,996.31
2022-12-23T00:38:51.388Z,996.31
2022-12-23T00:39:23.014Z,996.24
2022-12-23T00:39:58.720Z,996.24
2022-12-23T00:40:27.875Z,996.24
2022-12-23T00:40:50.495Z,996.41
2022-12-23T00:41:13.825Z,996.41
2022-12-23T00:41:47.607Z,996.41
2022-12-23T00:42:19.693Z,996.31
2022-12-23T00:42:51.684Z,996.31
2022-12-23T00:43:23.841Z,996.51
2022-12-23T00:43:55.387Z,996.51
2022-12-23T00:44:29.118Z,996.41
2022-12-23T00:44:51.701Z,996.41
2022-12-23T00:45:14.686Z,996.41
2022-12-23T00:45:48.004Z,996.41
2022-12-23T00:46:19.449Z,996.41
2022-12-23T00:46:51.528Z,996.41
2022-12-23T00:47:22.993Z,996.31
2022-12-23T00:47:55.875Z,996.31
2022-12-23T00:48:27.617Z,996.51
2022-12-23T00:48:50.276Z,996.41
2022-12-23T00:49:13.179Z,996.41
2022-12-23T00:49:47.467Z,996.41
2022-12-23T00:50:19.325Z,996.31
2022-12-23T00:50:51.309Z,996.31
2022-12-23T00:51:23.405Z,996.51
2022-12-23T00:51:55.254Z,996.51
2022-12-23T00:52:27.448Z,996.24
2022-12-23T00:52:50.165Z,996.31
2022-12-23T00:53:12.548Z,996.31
2022-12-23T00:53:47.547Z,996.31
2022-12-23T00:54:19.445Z,996.31
2022-12-23T00:54:51.612Z,996.31
2022-12-23T00:55:23.474Z,996.51
2022-12-23T00:55:55.740Z,996.51
2022-12-23T00:56:27.882Z,996.41
2022-12-23T00:56:50.183Z,996.61
2022-12-23T00:57:12.763Z,996.61
2022-12-23T00:57:48.769Z,996.61
2022-12-23T00:58:19.974Z,996.51
2022-12-23T00:58:51.689Z,996.51
2022-12-23T00:59:23.554Z,996.41
2022-12-23T00:59:55.164Z,996.41
2022-12-23T01:00:27.376Z,996.61
2022-12-23T01:00:50.684Z,996.51
2022-12-23T01:01:12.375Z,996.51
2022-12-23T01:01:48.630Z,996.51
2022-12-23T01:02:19.429Z,996.61
2022-12-23T01:02:52.231Z,996.61
2022-12-23T01:03:23.205Z,996.41
2022-12-23T01:03:56.236Z,996.41
2022-12-23T01:04:28.210Z,996.61
2022-12-23T01:04:50.982Z,996.51
2022-12-23T01:05:14.008Z,996.51
2022-12-23T01:05:48.562Z,996.41
2022-12-23T01:06:19.820Z,996.41
2022-12-23T01:06:51.893Z,996.41
2022-12-23T01:07:25.042Z,996.41
2022-12-23T01:07:56.381Z,996.41
2022-12-23T01:08:27.261Z,996.41
2022-12-23T01:08:49.984Z,996.51
2022-12-23T01:09:12.486Z,996.51
2022-12-23T01:09:47.425Z,996.51
2022-12-23T01:10:19.542Z,996.51
2022-12-23T01:10:52.045Z,996.51
2022-12-23T01:11:23.176Z,996.82
2022-12-23T01:11:57.183Z,996.82
2022-12-23T01:12:27.414Z,996.61
2022-12-23T01:12:50.461Z,996.61
2022-12-23T01:13:12.906Z,996.61
2022-12-23T01:13:47.469Z,996.61
2022-12-23T01:14:19.849Z,996.61
2022-12-23T01:14:52.098Z,996.61
2022-12-23T01:15:22.975Z,996.61
2022-12-23T01:15:58.809Z,996.61
2022-12-23T01:16:27.643Z,996.51
2022-12-23T01:16:50.457Z,996.51
2022-12-23T01:17:13.266Z,996.51
2022-12-23T01:17:47.327Z,996.51
2022-12-23T01:18:19.170Z,996.31
2022-12-23T01:18:51.926Z,996.31
2022-12-23T01:19:22.905Z,996.51
2022-12-23T01:19:55.599Z,996.51
2022-12-23T01:20:27.541Z,996.51
2022-12-23T01:20:50.547Z,996.51
2022-12-23T01:21:13.581Z,996.51
2022-12-23T01:21:47.322Z,996.51
2022-12-23T01:22:19.316Z,996.71
2022-12-23T01:22:51.554Z,996.71
2022-12-23T01:23:24.215Z,996.71
2022-12-23T01:23:55.423Z,996.71
2022-12-23T01:24:28.110Z,996.51
2022-12-23T01:24:50.848Z,996.41
2022-12-23T01:25:13.372Z,996.41
2022-12-23T01:25:47.771Z,996.41
2022-12-23T01:26:19.754Z,996.61
2022-12-23T01:26:51.747Z,996.61
2022-12-23T01:27:22.847Z,996.71
2022-12-23T01:27:55.354Z,996.71
2022-12-23T01:28:27.300Z,996.51
2022-12-23T01:28:49.999Z,996.51
2022-12-23T01:29:12.390Z,996.51
2022-12-23T01:29:47.779Z,996.51
2022-12-23T01:30:19.495Z,996.61
2022-12-23T01:30:51.791Z,996.61
2022-12-23T01:31:23.662Z,996.51
2022-12-23T01:31:56.116Z,996.51
2022-12-23T01:32:28.362Z,996.82
2022-12-23T01:32:51.140Z,996.51
2022-12-23T01:33:13.785Z,996.51
2022-12-23T01:33:47.936Z,996.51
2022-12-23T01:34:19.574Z,996.61
2022-12-23T01:34:51.276Z,996.61
2022-12-23T01:35:22.899Z,996.71
2022-12-23T01:35:55.870Z,996.71
2022-12-23T01:36:27.827Z,996.61
2022-12-23T01:36:50.624Z,996.61
2022-12-23T01:37:13.678Z,996.61
2022-12-23T01:37:47.273Z,996.61
2022-12-23T01:38:19.252Z,996.61
2022-12-23T01:38:53.023Z,996.61
2022-12-23T01:39:23.440Z,996.82
2022-12-23T01:39:55.494Z,996.82
2022-12-23T01:40:28.288Z,996.71
2022-12-23T01:40:50.847Z,996.71
2022-12-23T01:41:13.115Z,996.71
2022-12-23T01:41:47.844Z,996.71
2022-12-23T01:42:19.722Z,996.61
2022-12-23T01:42:51.800Z,996.61
2022-12-23T01:43:23.183Z,996.71
2022-12-23T01:43:55.449Z,996.71
2022-12-23T01:44:27.808Z,996.61
2022-12-23T01:44:49.984Z,996.61
2022-12-23T01:45:13.083Z,996.61
2022-12-23T01:45:47.510Z,996.61
2022-12-23T01:46:20.004Z,996.82
2022-12-23T01:46:51.462Z,996.82
2022-12-23T01:47:23.074Z,996.82
2022-12-23T01:47:55.341Z,996.82
2022-12-23T01:48:30.576Z,996.71
2022-12-23T01:48:52.678Z,996.61
2022-12-23T01:49:15.579Z,996.61
2022-12-23T01:49:51.332Z,996.92
2022-12-23T01:50:13.986Z,996.92
2022-12-23T01:50:52.048Z,996.92
2022-12-23T01:51:22.913Z,996.71
2022-12-23T01:51:55.295Z,996.71
2022-12-23T01:52:27.195Z,996.71
2022-12-23T01:52:49.907Z,996.61
2022-12-23T01:53:12.230Z,996.61
2022-12-23T01:53:47.250Z,996.61
2022-12-23T01:54:19.383Z,996.92
2022-12-23T01:54:51.400Z,996.92
2022-12-23T01:55:22.817Z,996.61
2022-12-23T01:55:55.261Z,996.61
2022-12-23T01:56:27.382Z,996.51
2022-12-23T01:56:50.850Z,996.92
2022-12-23T01:57:13.068Z,996.92
2022-12-23T01:57:47.610Z,996.92
2022-12-23T01:58:19.565Z,996.82
2022-12-23T01:58:51.207Z,996.82
2022-12-23T01:59:22.830Z,996.61
2022-12-23T01:59:55.350Z,996.61
2022-12-23T02:00:56.541Z,996.71
2022-12-23T02:01:13.458Z,996.71
2022-12-23T02:01:47.363Z,996.71
2022-12-23T02:02:19.637Z,996.71
2022-12-23T02:02:51.565Z,996.71
2022-12-23T02:03:23.162Z,996.61
2022-12-23T02:03:55.235Z,996.61
2022-12-23T02:04:27.833Z,996.71
2022-12-23T02:04:53.143Z,996.82
2022-12-23T02:05:31.536Z,996.82
2022-12-23T02:05:54.100Z,997.02
2022-12-23T02:06:16.490Z,997.02
2022-12-23T02:06:51.377Z,997.02
2022-12-23T02:07:25.058Z,996.61
2022-12-23T02:07:57.264Z,996.92
2022-12-23T02:08:27.145Z,996.92
2022-12-23T02:08:49.953Z,996.82
2022-12-23T02:09:12.494Z,996.82
2022-12-23T02:09:47.531Z,996.82
2022-12-23T02:10:19.098Z,996.92
2022-12-23T02:10:52.785Z,996.92
2022-12-23T02:11:22.878Z,996.82
2022-12-23T02:11:55.387Z,996.82
2022-12-23T02:12:27.136Z,996.61
2022-12-23T02:12:50.457Z,996.82
2022-12-23T02:13:13.014Z,996.82
2022-12-23T02:13:47.438Z,996.82
2022-12-23T02:14:19.290Z,996.92
2022-12-23T02:14:52.685Z,996.92
2022-12-23T02:15:23.309Z,996.82
2022-12-23T02:15:55.282Z,996.82
2022-12-23T02:16:27.474Z,996.61
2022-12-23T02:16:50.887Z,996.82
2022-12-23T02:17:13.267Z,996.82
2022-12-23T02:17:47.160Z,996.82
2022-12-23T02:18:19.358Z,996.82
2022-12-23T02:18:51.134Z,996.82
2022-12-23T02:19:23.142Z,996.92
2022-12-23T02:19:55.230Z,996.92
2022-12-23T02:20:27.351Z,996.92
2022-12-23T02:20:50.041Z,996.92
2022-12-23T02:21:12.470Z,996.92
2022-12-23T02:21:47.350Z,996.92
2022-12-23T02:22:20.636Z,996.82
2022-12-23T02:22:51.325Z,996.82
2022-12-23T02:23:22.950Z,996.82
2022-12-23T02:23:55.353Z,996.82
2022-12-23T02:24:27.313Z,996.92
2022-12-23T02:24:50.148Z,996.92
2022-12-23T02:25:12.430Z,996.92
2022-12-23T02:25:47.270Z,996.92
2022-12-23T02:26:19.206Z,996.92
2022-12-23T02:26:51.269Z,996.92
2022-12-23T02:27:23.086Z,996.92
2022-12-23T02:27:55.626Z,996.92
2022-12-23T02:28:27.979Z,996.92
2022-12-23T02:28:50.064Z,997.02
2022-12-23T02:29:12.488Z,997.02
2022-12-23T02:29:48.342Z,997.02
2022-12-23T02:30:19.746Z,996.92
2022-12-23T02:30:51.277Z,996.92
2022-12-23T02:31:22.838Z,997.02
2022-12-23T02:31:55.109Z,997.02
2022-12-23T02:32:27.339Z,996.92
2022-12-23T02:32:50.203Z,996.92
2022-12-23T02:33:12.442Z,996.92
2022-12-23T02:33:47.156Z,996.92
2022-12-23T02:34:19.349Z,996.71
2022-12-23T02:34:51.220Z,996.71
2022-12-23T02:35:23.012Z,996.71
2022-12-23T02:35:55.284Z,996.71
2022-12-23T02:36:43.434Z,996.71
2022-12-23T02:37:15.716Z,996.61
2022-12-23T02:37:47.358Z,996.61
2022-12-23T02:38:19.138Z,996.82
2022-12-23T02:38:51.526Z,996.82
2022-12-23T02:39:22.850Z,996.92
2022-12-23T02:39:55.234Z,996.92
2022-12-23T02:40:27.380Z,997.02
2022-12-23T02:40:50.066Z,996.82
2022-12-23T02:41:12.427Z,996.82
2022-12-23T02:41:47.268Z,996.82
2022-12-23T02:42:19.312Z,996.92
2022-12-23T02:42:51.300Z,996.92
2022-12-23T02:43:23.195Z,996.92
2022-12-23T02:43:55.134Z,996.92
2022-12-23T02:44:27.126Z,996.92
2022-12-23T02:44:49.887Z,997.02
2022-12-23T02:45:12.226Z,997.02
2022-12-23T02:45:47.480Z,997.02
2022-12-23T02:46:19.372Z,996.92
2022-12-23T02:46:51.353Z,996.92
2022-12-23T02:47:39.946Z,996.82
2022-12-23T02:48:02.327Z,996.92
2022-12-23T02:48:24.676Z,996.92
2022-12-23T02:48:55.954Z,996.92
2022-12-23T02:49:31.448Z,996.92
2022-12-23T02:49:54.246Z,996.92
2022-12-23T02:50:16.997Z,996.92
2022-12-23T02:50:51.163Z,996.92
2022-12-23T02:51:22.896Z,996.92
2022-12-23T02:51:55.713Z,996.92
2022-12-23T02:52:27.381Z,996.71
2022-12-23T02:52:51.556Z,996.92
2022-12-23T02:53:13.866Z,996.92
2022-12-23T02:53:47.264Z,996.92
2022-12-23T02:54:19.120Z,996.92
2022-12-23T02:54:51.625Z,996.92
2022-12-23T02:55:23.537Z,996.92
2022-12-23T02:55:55.074Z,996.92
2022-12-23T02:56:27.401Z,996.92
2022-12-23T02:56:50.324Z,997.02
2022-12-23T02:57:12.617Z,997.02
2022-12-23T02:57:47.570Z,997.02
2022-12-23T02:58:19.319Z,997.02
2022-12-23T02:58:51.629Z,997.02
2022-12-23T02:59:22.939Z,996.82
2022-12-23T02:59:55.455Z,996.82
2022-12-23T03:00:24.246Z,996.82
2022-12-23T03:00:54.579Z,997.02
2022-12-23T03:01:38.684Z,997.02
2022-12-23T03:02:01.817Z,996.92
2022-12-23T03:02:17.431Z,996.92
2022-12-23T03:02:52.824Z,996.92
2022-12-23T03:03:23.136Z,997.12
2022-12-23T03:03:55.502Z,997.12
2022-12-23T03:04:31.054Z,997.02
2022-12-23T03:04:55.514Z,997.22
2022-12-23T03:05:13.706Z,997.22
2022-12-23T03:05:47.670Z,997.22
2022-12-23T03:06:22.123Z,997.22
2022-12-23T03:06:52.048Z,997.22
2022-12-23T03:07:26.105Z,997.02
2022-12-23T03:08:04.128Z,997.12
2022-12-23T03:08:26.565Z,997.12
2022-12-23T03:08:49.610Z,997.02
2022-12-23T03:09:12.001Z,997.02
2022-12-23T03:09:47.421Z,997.02
2022-12-23T03:10:19.285Z,997.12
2022-12-23T03:10:51.277Z,997.12
2022-12-23T03:11:22.846Z,997.22
2022-12-23T03:11:49.444Z,997.22
2022-12-23T03:12:23.578Z,997.22
2022-12-23T03:12:54.844Z,997.12
2022-12-23T03:13:31.637Z,997.12
2022-12-23T03:13:54.145Z,997.12
2022-12-23T03:14:17.302Z,997.12
2022-12-23T03:14:55.734Z,997.12
2022-12-23T03:15:39.674Z,997.12
2022-12-23T03:16:01.858Z,997.12
2022-12-23T03:16:26.630Z,997.12
2022-12-23T03:16:54.641Z,997.32
2022-12-23T03:17:32.123Z,997.32
2022-12-23T03:17:54.488Z,997.02
2022-12-23T03:18:16.871Z,997.02
2022-12-23T03:18:51.360Z,997.02
2022-12-23T03:19:29.752Z,997.22
2022-12-23T03:19:52.229Z,997.22
2022-12-23T03:20:22.980Z,997.12
2022-12-23T03:20:54.627Z,997.12
2022-12-23T03:21:31.390Z,997.12
2022-12-23T03:21:53.966Z,997.02
2022-12-23T03:22:16.239Z,997.02
2022-12-23T03:22:51.240Z,997.02
2022-12-23T03:23:22.965Z,997.32
2022-12-23T03:23:55.899Z,997.32
2022-12-23T03:24:27.275Z,997.32
2022-12-23T03:24:50.811Z,997.32
2022-12-23T03:25:13.233Z,997.32
2022-12-23T03:25:47.691Z,997.32
2022-12-23T03:26:19.198Z,997.22
2022-12-23T03:26:51.335Z,997.22
2022-12-23T03:27:22.963Z,997.22
2022-12-23T03:27:55.429Z,997.22
2022-12-23T03:28:27.041Z,997.43
2022-12-23T03:28:50.205Z,997.43
2022-12-23T03:29:12.773Z,997.43
2022-12-23T03:29:48.273Z,997.43
2022-12-23T03:30:19.215Z,997.53
2022-12-23T03:30:51.294Z,997.53
2022-12-23T03:31:23.004Z,997.32
2022-12-23T03:31:55.194Z,997.32
2022-12-23T03:32:27.323Z,997.32
2022-12-23T03:32:50.616Z,997.32
2022-12-23T03:33:12.860Z,997.32
2022-12-23T03:33:47.161Z,997.32
2022-12-23T03:34:19.258Z,997.43
2022-12-23T03:34:51.190Z,997.43
2022-12-23T03:35:22.949Z,997.53
2022-12-23T03:35:55.091Z,997.53
2022-12-23T03:36:27.448Z,997.53
2022-12-23T03:36:51.395Z,997.22
2022-12-23T03:37:13.929Z,997.22
2022-12-23T03:37:47.087Z,997.22
2022-12-23T03:38:19.160Z,997.43
2022-12-23T03:38:51.232Z,997.43
2022-12-23T03:39:22.928Z,997.32
2022-12-23T03:39:55.095Z,997.32
2022-12-23T03:40:27.190Z,997.43
2022-12-23T03:40:50.469Z,997.43
2022-12-23T03:41:12.995Z,997.43
2022-12-23T03:41:47.187Z,997.43
2022-12-23T03:42:19.305Z,997.22
2022-12-23T03:42:51.457Z,997.22
2022-12-23T03:43:22.919Z,997.32
2022-12-23T03:43:55.249Z,997.32
2022-12-23T03:44:27.094Z,997.43
2022-12-23T03:45:19.080Z,997.53
2022-12-23T03:45:47.803Z,997.53
2022-12-23T03:46:19.691Z,997.32
2022-12-23T03:46:51.413Z,997.32
2022-12-23T03:47:24.114Z,997.22
2022-12-23T03:47:56.435Z,997.22
2022-12-23T03:48:28.509Z,997.22
2022-12-23T03:48:50.608Z,997.43
2022-12-23T03:49:13.331Z,997.43
2022-12-23T03:49:47.437Z,997.43
2022-12-23T03:50:19.309Z,997.43
2022-12-23T03:50:51.551Z,997.43
2022-12-23T03:51:23.204Z,997.43
2022-12-23T03:51:55.916Z,997.43
2022-12-23T03:52:27.306Z,997.63
2022-12-23T03:52:50.979Z,997.43
2022-12-23T03:53:13.352Z,997.43
2022-12-23T03:53:48.164Z,997.43
2022-12-23T03:54:20.019Z,997.43
2022-12-23T03:54:51.178Z,997.43
2022-12-23T03:55:23.602Z,997.43
2022-12-23T03:55:55.659Z,997.43
2022-12-23T03:56:28.082Z,997.53
2022-12-23T03:56:50.686Z,997.32
2022-12-23T03:57:13.576Z,997.32
2022-12-23T03:57:55.463Z,997.63
2022-12-23T03:58:18.160Z,997.63
2022-12-23T03:58:52.495Z,997.63
2022-12-23T03:59:23.537Z,997.63
2022-12-23T03:59:55.899Z,997.63
2022-12-23T04:00:27.530Z,997.63
2022-12-23T04:00:49.816Z,997.63
2022-12-23T04:01:12.663Z,997.63
2022-12-23T04:01:47.953Z,997.63
2022-12-23T04:02:21.511Z,997.73
2022-12-23T04:02:51.567Z,997.73
2022-12-23T04:03:24.232Z,997.63
2022-12-23T04:03:56.018Z,997.63
2022-12-23T04:04:28.012Z,997.73
2022-12-23T04:04:50.486Z,997.63
2022-12-23T04:05:13.037Z,997.63
2022-12-23T04:05:48.346Z,997.63
2022-12-23T04:06:19.191Z,997.73
2022-12-23T04:06:51.264Z,997.73
2022-12-23T04:07:23.820Z,997.63
2022-12-23T04:07:56.391Z,997.63
2022-12-23T04:08:27.217Z,997.53
2022-12-23T04:08:49.883Z,997.73
2022-12-23T04:09:16.631Z,997.73
2022-12-23T04:09:47.393Z,997.73
2022-12-23T04:10:21.175Z,997.73
2022-12-23T04:10:51.623Z,997.73
2022-12-23T04:11:23.273Z,997.63
2022-12-23T04:11:55.940Z,997.63
2022-12-23T04:12:27.313Z,997.83
2022-12-23T04:12:50.094Z,997.63
2022-12-23T04:13:12.493Z,997.63
2022-12-23T04:13:47.196Z,997.63
2022-12-23T04:14:19.581Z,997.53
2022-12-23T04:14:53.115Z,997.53
2022-12-23T04:15:23.364Z,997.73
2022-12-23T04:15:55.760Z,997.73
2022-12-23T04:16:27.212Z,997.83
2022-12-23T04:16:49.826Z,997.83
2022-12-23T04:17:13.453Z,997.83
2022-12-23T04:17:50.761Z,997.53
2022-12-23T04:18:13.444Z,997.53
2022-12-23T04:18:51.529Z,997.53
2022-12-23T04:19:22.999Z,997.73
2022-12-23T04:19:55.241Z,997.73
2022-12-23T04:20:27.113Z,997.83
2022-12-23T04:20:52.194Z,997.83
2022-12-23T04:21:13.156Z,997.83
2022-12-23T04:21:47.110Z,997.83
2022-12-23T04:22:19.284Z,997.83
2022-12-23T04:22:51.315Z,997.83
2022-12-23T04:23:23.416Z,997.63
2022-12-23T04:23:55.084Z,997.63
2022-12-23T04:24:27.148Z,997.73
2022-12-23T04:24:49.764Z,997.73
2022-12-23T04:25:12.287Z,997.73
2022-12-23T04:25:47.179Z,997.73
2022-12-23T04:26:19.209Z,998.03
2022-12-23T04:26:53.552Z,998.03
2022-12-23T04:27:23.231Z,997.73
2022-12-23T04:27:55.307Z,997.73
2022-12-23T04:28:27.830Z,997.83
2022-12-23T04:28:50.374Z,997.93
2022-12-23T04:29:12.667Z,997.93
2022-12-23T04:29:47.067Z,997.93
2022-12-23T04:30:19.184Z,997.83
2022-12-23T04:30:51.156Z,997.83
2022-12-23T04:31:22.994Z,997.83
2022-12-23T04:31:55.343Z,997.83
2022-12-23T04:32:27.132Z,997.83
2022-12-23T04:32:50.706Z,997.93
2022-12-23T04:33:12.530Z,997.93
2022-12-23T04:33:47.196Z,997.93
2022-12-23T04:34:19.205Z,997.73
2022-12-23T04:34:51.172Z,997.73
2022-12-23T04:35:22.852Z,998.14
2022-12-23T04:35:55.061Z,998.14
2022-12-23T04:36:27.204Z,997.83
2022-12-23T04:36:50.491Z,997.93
2022-12-23T04:37:13.158Z,997.93
2022-12-23T04:37:48.614Z,997.93
2022-12-23T04:38:19.893Z,998.03
2022-12-23T04:38:51.236Z,998.03
2022-12-23T04:39:22.970Z,998.03
2022-12-23T04:39:55.119Z,998.03
2022-12-23T04:40:27.231Z,997.93
2022-12-23T04:40:50.201Z,997.83
2022-12-23T04:41:12.635Z,997.83
2022-12-23T04:41:47.318Z,997.83
2022-12-23T04:42:20.256Z,997.73
2022-12-23T04:42:55.623Z,997.73
2022-12-23T04:43:23.384Z,998.03
2022-12-23T04:43:55.132Z,998.03
2022-12-23T04:44:27.170Z,998.03
2022-12-23T04:44:49.937Z,997.93
2022-12-23T04:45:12.477Z,997.93
2022-12-23T04:45:47.144Z,997.93
2022-12-23T04:46:19.098Z,997.93
2022-12-23T04:46:51.447Z,997.93
2022-12-23T04:47:18.282Z,997.73
2022-12-23T04:47:55.591Z,997.73
2022-12-23T04:48:27.702Z,998.03
2022-12-23T04:48:50.388Z,998.03
2022-12-23T04:49:12.821Z,998.03
2022-12-23T04:49:47.471Z,998.03
2022-12-23T04:50:19.168Z,997.93
2022-12-23T04:50:51.416Z,997.93
2022-12-23T04:51:23.108Z,998.03
2022-12-23T04:51:56.312Z,998.03
2022-12-23T04:52:27.171Z,997.93
2022-12-23T04:52:50.067Z,997.83
2022-12-23T04:53:13.011Z,997.83
2022-12-23T04:53:48.432Z,997.83
2022-12-23T04:54:20.310Z,997.83
2022-12-23T04:54:51.616Z,997.83
2022-12-23T04:55:24.118Z,997.83
2022-12-23T04:55:55.950Z,997.83
2022-12-23T04:56:27.307Z,998.03
2022-12-23T04:56:50.347Z,998.14
2022-12-23T04:57:13.546Z,998.14
2022-12-23T04:57:49.253Z,998.03
2022-12-23T04:58:20.892Z,998.03
2022-12-23T04:58:52.709Z,998.03
2022-12-23T04:59:23.171Z,998.03
2022-12-23T04:59:55.474Z,998.03
2022-12-23T05:00:27.234Z,997.93
2022-12-23T05:00:50.177Z,997.93
2022-12-23T05:01:12.708Z,997.93
2022-12-23T05:01:47.432Z,997.93
2022-12-23T05:02:21.435Z,998.03
2022-12-23T05:02:51.353Z,998.03
2022-12-23T05:03:23.249Z,997.83
2022-12-23T05:03:57.397Z,997.93
2022-12-23T05:04:27.517Z,997.93
2022-12-23T05:04:50.159Z,998.03
2022-12-23T05:05:13.192Z,998.03
2022-12-23T05:05:48.137Z,998.03
2022-12-23T05:06:19.342Z,998.14
2022-12-23T05:06:52.169Z,998.14
2022-12-23T05:07:24.420Z,997.93
2022-12-23T05:07:56.097Z,997.93
2022-12-23T05:08:27.231Z,998.14
2022-12-23T05:08:49.677Z,998.03
2022-12-23T05:09:12.284Z,998.03
2022-12-23T05:09:47.318Z,998.03
2022-12-23T05:10:19.336Z,998.03
2022-12-23T05:10:51.308Z,998.03
2022-12-23T05:11:23.791Z,998.03
2022-12-23T05:11:55.970Z,998.03
2022-12-23T05:12:27.514Z,998.03
2022-12-23T05:12:50.714Z,998.03
2022-12-23T05:13:12.568Z,998.03
2022-12-23T05:13:47.348Z,998.03
2022-12-23T05:14:19.272Z,998.03
2022-12-23T05:14:52.807Z,998.14
2022-12-23T05:15:23.266Z,998.14
2022-12-23T05:15:56.074Z,998.14
2022-12-23T05:16:27.535Z,998.03
2022-12-23T05:16:50.194Z,998.03
2022-12-23T05:17:13.213Z,998.03
2022-12-23T05:17:47.546Z,998.03
2022-12-23T05:18:25.852Z,998.14
2022-12-23T05:18:48.254Z,998.14
2022-12-23T05:19:23.411Z,998.14
2022-12-23T05:19:55.185Z,998.14
2022-12-23T05:20:27.131Z,998.24
2022-12-23T05:20:51.004Z,998.03
2022-12-23T05:21:13.229Z,998.03
2022-12-23T05:21:47.234Z,998.03
2022-12-23T05:22:19.213Z,998.24
2022-12-23T05:22:51.299Z,998.24
2022-12-23T05:23:22.854Z,998.14
2022-12-23T05:23:55.132Z,998.14
2022-12-23T05:24:27.152Z,998.14
2022-12-23T05:24:49.919Z,998.34
2022-12-23T05:25:12.362Z,998.34
2022-12-23T05:25:47.325Z,998.34
2022-12-23T05:26:19.171Z,998.34
2022-12-23T05:26:57.716Z,998.34
2022-12-23T05:27:22.966Z,998.24
2022-12-23T05:27:55.022Z,998.24
2022-12-23T05:28:27.523Z,998.24
2022-12-23T05:28:50.601Z,998.24
2022-12-23T05:29:12.928Z,998.24
2022-12-23T05:29:47.118Z,998.24
2022-12-23T05:30:19.156Z,998.24
2022-12-23T05:30:52.595Z,998.24
2022-12-23T05:31:23.324Z,998.34
2022-12-23T05:31:55.253Z,998.34
2022-12-23T05:32:27.087Z,998.44
2022-12-23T05:32:50.668Z,998.34
2022-12-23T05:33:12.989Z,998.34
2022-12-23T05:33:47.226Z,998.34
2022-12-23T05:34:18.961Z,998.14
2022-12-23T05:34:51.131Z,998.14
2022-12-23T05:35:22.906Z,998.24
2022-12-23T05:35:56.013Z,998.24
2022-12-23T05:36:27.148Z,998.34
2022-12-23T05:36:51.262Z,998.44
2022-12-23T05:37:13.667Z,998.44
2022-12-23T05:37:47.106Z,998.44
2022-12-23T05:38:19.621Z,998.24
2022-12-23T05:38:48.244Z,998.24
2022-12-23T05:39:24.678Z,998.14
2022-12-23T05:39:55.146Z,998.14
2022-12-23T05:40:30.417Z,998.14
2022-12-23T05:40:51.125Z,998.24
2022-12-23T05:41:13.941Z,998.24
2022-12-23T05:41:47.671Z,998.24
2022-12-23T05:42:19.331Z,998.24
2022-12-23T05:42:51.921Z,998.24
2022-12-23T05:43:22.922Z,998.14
2022-12-23T05:43:55.585Z,998.14
2022-12-23T05:44:27.272Z,998.34
2022-12-23T05:44:49.826Z,998.24
2022-12-23T05:45:12.387Z,998.24
2022-12-23T05:45:47.793Z,998.24
2022-12-23T05:46:24.324Z,998.34
2022-12-23T05:46:51.607Z,998.34
2022-12-23T05:47:23.273Z,998.14
2022-12-23T05:47:56.610Z,998.14
2022-12-23T05:48:29.247Z,998.34
2022-12-23T05:48:51.880Z,998.24
2022-12-23T05:49:16.503Z,998.24
2022-12-23T05:49:48.226Z,998.24
2022-12-23T05:50:20.559Z,998.24
2022-12-23T05:50:51.198Z,998.24
2022-12-23T05:51:22.990Z,998.24
2022-12-23T05:51:55.914Z,998.24
2022-12-23T05:52:27.611Z,998.24
2022-12-23T05:52:51.427Z,998.14
2022-12-23T05:53:19.185Z,998.14
2022-12-23T05:53:47.532Z,998.14
2022-12-23T05:54:19.891Z,998.24
2022-12-23T05:54:51.405Z,998.24
2022-12-23T05:55:23.257Z,998.14
2022-12-23T05:55:55.453Z,998.14
2022-12-23T05:56:27.517Z,998.44
2022-12-23T05:56:50.093Z,998.14
2022-12-23T05:57:13.118Z,998.14
2022-12-23T05:57:49.886Z,998.24
2022-12-23T05:58:25.675Z,998.24
2022-12-23T05:58:47.969Z,998.24
2022-12-23T05:59:30.992Z,998.24
2022-12-23T05:59:57.191Z,998.24
2022-12-23T06:00:27.203Z,998.24
2022-12-23T06:00:51.840Z,998.34
2022-12-23T06:01:20.906Z,998.34
2022-12-23T06:01:53.408Z,998.34
2022-12-23T06:02:19.525Z,998.34
2022-12-23T06:02:54.229Z,998.34
2022-12-23T06:04:11.412Z,998.34
2022-12-23T06:04:44.545Z,998.34
2022-12-23T06:05:15.129Z,998.51
2022-12-23T06:05:48.173Z,998.51
2022-12-23T06:06:19.261Z,998.34
2022-12-23T06:06:51.320Z,998.34
2022-12-23T06:07:24.719Z,998.34
2022-12-23T06:07:55.537Z,998.34
2022-12-23T06:08:27.371Z,998.44
2022-12-23T06:08:54.417Z,998.24
2022-12-23T06:09:12.583Z,998.24
2022-12-23T06:09:48.410Z,998.24
2022-12-23T06:10:20.211Z,998.44
2022-12-23T06:10:51.527Z,998.44
2022-12-23T06:11:23.424Z,998.34
2022-12-23T06:11:55.247Z,998.34
2022-12-23T06:12:27.206Z,998.44
2022-12-23T06:12:49.959Z,998.51
2022-12-23T06:13:12.437Z,998.51
2022-12-23T06:13:47.360Z,998.51
2022-12-23T06:14:23.857Z,998.44
2022-12-23T06:14:53.215Z,998.51
2022-12-23T06:15:23.648Z,998.51
2022-12-23T06:15:56.906Z,998.71
2022-12-23T06:16:27.158Z,998.71
2022-12-23T06:16:49.815Z,998.51